Time;durP1;ratioP1;P1;durP2;ratioP2;P2;SDS_P1;SDS_P2;PMS_P1;PMS_P2;Temp;Humidity;BMP_temperature;BMP_pressure;BME280_temperature;BME280_humidity;BME280_pressure;Samples;Min_cycle;Max_cycle;Signal;HPM_P1;HPM_P2
2022/01/23 00:00:18;;;;;;;50.33;30.77;;;;;;;3.55;70.86;102485.25;5026158;28;20131;-83
2022/01/23 00:02:51;;;;;;;44.57;29.13;;;;;;;3.59;71.38;102501.75;5005987;28;20650;-80
2022/01/23 00:05:39;;;;;;;50.13;32.43;;;;;;;3.51;70.95;102488.84;5038356;28;20046;-81
2022/01/23 00:08:06;;;;;;;40.63;29.27;;;;;;;3.63;71.01;102525.25;5006769;28;20509;-81
2022/01/23 00:10:33;;;;;;;40.90;27.93;;;;;;;3.56;71.33;102513.22;4991856;28;20054;-83
2022/01/23 00:18:28;;;;;;;47.47;29.63;;;;;;;3.61;70.57;102498.16;4986806;28;20137;-81
2022/01/23 00:20:55;;;;;;;43.80;27.87;;;;;;;3.47;70.34;102482.00;4986635;28;20081;-81
2022/01/23 00:30:19;;;;;;;41.53;26.70;;;;;;;3.76;70.43;102524.91;5021251;28;20113;-82
2022/01/23 00:31:51;;;;;;;44.13;27.30;;;;;;;3.62;70.42;102520.91;4990340;28;20074;-82
2022/01/23 00:34:19;;;;;;;44.17;27.70;;;;;;;3.53;70.31;102529.06;4988589;28;20448;-82
2022/01/23 00:36:46;;;;;;;36.60;26.13;;;;;;;3.41;70.63;102501.38;4988911;28;20133;-82
2022/01/23 00:39:16;;;;;;;36.87;25.80;;;;;;;3.45;70.67;102515.31;4988823;28;20156;-81
2022/01/23 00:41:42;;;;;;;43.73;28.07;;;;;;;3.01;71.16;102446.53;4989999;28;20085;-83
2022/01/23 00:44:09;;;;;;;36.80;26.50;;;;;;;3.38;71.51;102513.75;4988665;28;20054;-83
2022/01/23 00:46:38;;;;;;;37.00;25.13;;;;;;;2.04;71.20;102285.72;4989756;28;20414;-81
2022/01/23 00:51:37;;;;;;;40.30;25.30;;;;;;;3.67;70.80;102514.69;4990103;28;20136;-82
2022/01/23 00:54:08;;;;;;;35.63;22.97;;;;;;;3.39;69.85;102462.94;4988971;28;20508;-82
2022/01/23 00:56:34;;;;;;;34.37;23.43;;;;;;;3.83;69.38;102522.03;4988243;28;20524;-82
2022/01/23 00:59:02;;;;;;;36.17;23.60;;;;;;;3.58;69.18;102479.88;4988117;28;20042;-82
2022/01/23 01:01:29;;;;;;;32.80;22.77;;;;;;;3.32;69.13;102445.66;5021065;28;20078;-82
2022/01/23 01:03:56;;;;;;;36.57;22.83;;;;;;;3.58;69.17;102485.13;5007518;28;20057;-83
2022/01/23 01:06:23;;;;;;;41.23;23.40;;;;;;;3.32;69.94;102451.75;5008742;28;20069;-81
2022/01/23 01:08:53;;;;;;;32.90;22.90;;;;;;;3.62;70.08;102513.03;5038958;28;20054;-80
2022/01/23 01:33:16;;;;;;;31.70;22.33;;;;;;;3.32;70.96;102487.66;5007674;28;20050;-82
2022/01/23 01:35:58;;;;;;;30.90;22.07;;;;;;;3.31;70.59;102492.06;5006846;28;20149;-83
2022/01/23 01:38:25;;;;;;;33.97;22.63;;;;;;;3.34;70.79;102497.22;5008469;28;20486;-82
2022/01/23 01:40:52;;;;;;;28.63;21.10;;;;;;;3.24;71.02;102481.78;5026505;28;20090;-83
2022/01/23 01:43:19;;;;;;;34.97;22.37;;;;;;;3.54;70.59;102499.25;5030185;28;20100;-83
2022/01/23 01:45:46;;;;;;;32.77;21.97;;;;;;;3.77;70.32;102497.72;5053588;28;20145;-83
2022/01/23 01:48:16;;;;;;;33.17;22.57;;;;;;;3.62;69.09;102480.66;5057330;28;20574;-82
2022/01/23 01:50:46;;;;;;;36.57;21.37;;;;;;;3.21;69.21;102423.22;5043591;28;20077;-83
2022/01/23 01:53:13;;;;;;;30.57;22.20;;;;;;;3.27;70.07;102456.28;5007711;28;20054;-82
2022/01/23 01:55:45;;;;;;;32.13;22.03;;;;;;;3.48;70.13;102501.22;5007771;28;20053;-82
2022/01/23 02:01:00;;;;;;;33.73;22.00;;;;;;;3.26;70.56;102477.34;5007660;28;20054;-82
2022/01/23 02:08:57;;;;;;;32.30;22.60;;;;;;;3.45;70.16;102488.16;5008166;28;20060;-84
2022/01/23 02:11:46;;;;;;;29.37;22.10;;;;;;;3.07;70.60;102430.63;5007635;28;20133;-83
2022/01/23 02:14:27;;;;;;;32.07;22.57;;;;;;;3.32;71.03;102496.38;5007926;28;20056;-82
2022/01/23 02:17:21;;;;;;;34.77;21.50;;;;;;;3.44;71.18;102492.56;5006129;28;20115;-83
2022/01/23 02:53:14;;;;;;;30.93;20.40;;;;;;;3.10;71.33;102488.25;5007155;28;20046;-82
2022/01/23 02:55:41;;;;;;;29.45;20.33;;;;;;;2.82;71.15;102447.94;5006787;28;20171;-82
2022/01/23 02:58:10;;;;;;;31.77;20.30;;;;;;;3.06;70.74;102481.38;5005691;28;20052;-82
2022/01/23 03:00:48;;;;;;;27.93;21.13;;;;;;;2.90;70.82;102462.56;5006656;28;20136;-83
2022/01/23 03:03:23;;;;;;;27.73;20.13;;;;;;;3.04;71.21;102498.94;5021280;28;20061;-83
2022/01/23 03:06:16;;;;;;;29.40;20.67;;;;;;;2.96;71.49;102488.66;5008993;28;20507;-81
2022/01/23 03:28:03;;;;;;;38.30;25.27;;;;;;;2.29;71.74;102407.34;5026347;28;20059;-82
2022/01/23 03:30:28;;;;;;;36.37;24.10;;;;;;;2.33;71.86;102414.25;5025354;28;20248;-81
2022/01/23 03:32:56;;;;;;;41.67;26.73;;;;;;;2.89;71.42;102501.94;5041140;28;20053;-84
2022/01/23 03:35:23;;;;;;;39.20;25.47;;;;;;;2.89;71.11;102494.06;5026155;28;20046;-83
2022/01/23 03:37:49;;;;;;;36.83;25.07;;;;;;;2.96;70.18;102506.13;5041676;28;20060;-83
2022/01/23 03:40:17;;;;;;;40.43;26.37;;;;;;;2.48;70.20;102425.25;5026131;28;20536;-82
2022/01/23 03:42:46;;;;;;;40.47;25.73;;;;;;;2.90;70.58;102501.06;5008588;28;20521;-82
2022/01/23 03:47:42;;;;;;;35.50;24.90;;;;;;;2.68;70.44;102464.03;5025951;28;20076;-82
2022/01/23 03:50:11;;;;;;;36.80;26.10;;;;;;;2.84;70.47;102491.59;5008954;28;20411;-83
2022/01/23 03:52:39;;;;;;;40.37;25.87;;;;;;;2.84;70.46;102502.09;5009311;28;20058;-81
2022/01/23 03:55:08;;;;;;;36.47;24.47;;;;;;;2.62;70.28;102479.94;5041154;28;20054;-81
2022/01/23 03:57:37;;;;;;;37.47;25.43;;;;;;;2.38;70.52;102455.19;5012023;28;20136;-80
2022/01/23 04:00:06;;;;;;;38.67;26.57;;;;;;;2.55;70.82;102479.25;5029585;28;20242;-82
2022/01/23 04:02:33;;;;;;;41.13;26.87;;;;;;;2.66;70.97;102500.78;5012069;28;20059;-83
2022/01/23 04:05:02;;;;;;;35.80;25.67;;;;;;;2.49;71.15;102484.63;5012394;28;20091;-81
2022/01/23 04:07:29;;;;;;;46.60;25.80;;;;;;;2.62;71.29;102511.38;5013150;28;20049;-82
2022/01/23 04:09:55;;;;;;;40.23;28.40;;;;;;;2.68;71.50;102501.63;5012239;28;20485;-82
2022/01/23 04:14:55;;;;;;;36.27;25.07;;;;;;;2.40;71.81;102482.22;5029567;28;20045;-82
2022/01/23 04:18:43;;;;;;;40.87;27.37;;;;;;;2.31;71.69;102484.19;5028197;28;20388;-83
2022/01/23 05:01:05;;;;;;;34.53;24.77;;;;;;;2.23;72.64;102506.22;5028557;28;20051;-82
2022/01/23 05:06:20;;;;;;;37.67;24.50;;;;;;;2.00;72.38;102484.03;5028573;28;19921;-82
2022/01/23 05:08:47;;;;;;;35.67;23.63;;;;;;;1.75;72.06;102434.00;5027572;28;20564;-83
2022/01/23 05:11:15;;;;;;;38.47;25.10;;;;;;;2.32;71.59;102514.72;5009196;28;20057;-82
2022/01/23 05:13:42;;;;;;;38.30;25.87;;;;;;;1.81;70.94;102420.75;5023866;28;20060;-82
2022/01/23 05:16:10;;;;;;;35.77;25.60;;;;;;;2.27;71.42;102500.88;5023766;28;20053;-83
2022/01/23 05:18:38;;;;;;;35.97;24.83;;;;;;;2.40;71.03;102522.41;5009253;28;20308;-82
2022/01/23 05:21:32;;;;;;;37.33;25.83;;;;;;;2.19;71.11;102487.09;5023923;28;20405;-83
2022/01/23 05:23:56;;;;;;;34.70;24.87;;;;;;;2.35;71.22;102525.16;5008617;28;20046;-83
2022/01/23 05:26:23;;;;;;;36.73;24.83;;;;;;;2.27;71.42;102531.47;5008783;28;20050;-83
2022/01/23 05:28:49;;;;;;;37.53;26.67;;;;;;;2.27;71.10;102536.72;5008452;28;20057;-83
2022/01/23 05:31:16;;;;;;;37.40;24.73;;;;;;;2.24;70.83;102545.50;4991516;28;20501;-82
2022/01/23 05:33:43;;;;;;;43.23;26.83;;;;;;;2.26;70.81;102548.97;5023791;28;20536;-83
2022/01/23 05:36:10;;;;;;;39.43;28.17;;;;;;;2.26;71.07;102551.56;4990954;28;20046;-83
2022/01/23 05:38:38;;;;;;;43.43;26.77;;;;;;;1.82;71.03;102485.34;4991205;28;20152;-83
2022/01/23 05:41:05;;;;;;;38.13;25.90;;;;;;;1.63;71.25;102457.84;5008317;28;20058;-83
2022/01/23 05:43:32;;;;;;;38.77;26.00;;;;;;;2.16;70.86;102560.56;4990794;28;20053;-83
2022/01/23 05:45:58;;;;;;;46.43;30.30;;;;;;;1.84;71.13;102521.94;5007877;28;20069;-83
2022/01/23 05:48:25;;;;;;;46.10;26.87;;;;;;;1.92;71.51;102538.38;4990909;28;20042;-83
2022/01/23 05:50:52;;;;;;;38.10;27.87;;;;;;;2.01;71.88;102566.09;5023423;28;20050;-82
2022/01/23 05:53:18;;;;;;;39.33;27.33;;;;;;;2.08;71.77;102572.94;5024963;28;20269;-83
2022/01/23 05:55:45;;;;;;;40.77;28.80;;;;;;;1.95;71.06;102558.41;5026101;28;20080;-82
2022/01/23 05:58:14;;;;;;;39.33;27.17;;;;;;;1.95;71.49;102571.50;4996723;28;20045;-83
2022/01/23 06:00:41;;;;;;;40.27;26.83;;;;;;;1.81;71.28;102535.13;5029573;28;20317;-81
2022/01/23 06:03:07;;;;;;;39.67;26.90;;;;;;;1.96;70.95;102573.22;5036758;28;20058;-82
2022/01/23 06:05:34;;;;;;;39.70;27.57;;;;;;;1.91;70.89;102573.31;5024722;28;20439;-82
2022/01/23 06:08:01;;;;;;;35.10;25.43;;;;;;;1.88;70.89;102576.00;5024393;28;20136;-84
2022/01/23 06:10:29;;;;;;;32.50;25.47;;;;;;;1.55;70.60;102527.78;5025495;28;20409;-83
2022/01/23 06:12:58;;;;;;;37.03;25.07;;;;;;;1.58;70.65;102546.03;5040741;28;20559;-82
2022/01/23 06:15:25;;;;;;;36.03;26.90;;;;;;;1.51;71.13;102557.56;5007940;28;20133;-83
2022/01/23 06:17:51;;;;;;;41.53;27.70;;;;;;;1.59;71.44;102579.22;5024036;28;20153;-83
2022/01/23 06:20:18;;;;;;;37.87;25.90;;;;;;;1.47;71.94;102585.53;5007190;28;20049;-83
2022/01/23 06:22:47;;;;;;;41.20;27.47;;;;;;;1.37;72.47;102571.75;5023771;28;20539;-83
2022/01/23 06:25:15;;;;;;;40.43;29.37;;;;;;;1.47;71.86;102572.44;5008017;28;20144;-82
2022/01/23 06:27:42;;;;;;;44.17;29.37;;;;;;;1.59;72.44;102587.91;5040306;28;20132;-82
2022/01/23 06:30:09;;;;;;;41.17;29.60;;;;;;;1.36;72.58;102566.53;5007603;28;20049;-83
2022/01/23 06:32:36;;;;;;;60.37;31.47;;;;;;;1.54;72.91;102612.47;5025417;28;20145;-82
2022/01/23 06:35:03;;;;;;;65.20;32.83;;;;;;;1.53;73.11;102608.09;5007675;28;20512;-82
2022/01/23 06:37:29;;;;;;;61.47;31.73;;;;;;;0.78;73.74;102492.66;5029658;28;20131;-82
2022/01/23 06:39:56;;;;;;;56.80;32.70;;;;;;;1.15;74.04;102570.44;5060114;28;20575;-82
2022/01/23 06:42:23;;;;;;;77.63;33.23;;;;;;;1.19;74.47;102590.41;5026891;28;20515;-82
2022/01/23 06:44:49;;;;;;;42.87;29.07;;;;;;;1.31;74.93;102632.09;5060301;28;20139;-82
2022/01/23 06:47:16;;;;;;;48.37;29.87;;;;;;;1.38;74.63;102631.06;5034681;28;20170;-83
2022/01/23 06:49:43;;;;;;;75.07;29.60;;;;;;;1.33;74.09;102634.66;5025629;28;20045;-82
2022/01/23 06:52:09;;;;;;;47.90;30.27;;;;;;;1.28;74.64;102634.72;4987907;28;20052;-82
2022/01/23 06:54:36;;;;;;;40.37;27.63;;;;;;;1.18;75.15;102607.00;4992214;28;20409;-82
2022/01/23 06:57:02;;;;;;;39.00;29.00;;;;;;;0.97;74.95;102595.16;5045485;28;20045;-82
2022/01/23 06:59:29;;;;;;;39.77;28.33;;;;;;;1.00;75.18;102593.38;5027667;28;20139;-83
2022/01/23 07:01:57;;;;;;;43.10;27.57;;;;;;;0.63;74.80;102533.84;5043232;28;20053;-82
2022/01/23 07:04:24;;;;;;;43.87;28.97;;;;;;;1.18;74.78;102626.19;5025815;28;20087;-82
2022/01/23 07:06:51;;;;;;;55.30;30.50;;;;;;;1.14;75.04;102634.09;5023479;28;20404;-82
2022/01/23 07:09:18;;;;;;;44.00;29.93;;;;;;;0.85;75.05;102606.72;5023360;28;20576;-82
2022/01/23 07:11:45;;;;;;;43.50;29.33;;;;;;;1.18;75.46;102646.25;5039558;28;20068;-82
2022/01/23 07:14:12;;;;;;;67.20;32.33;;;;;;;0.81;74.82;102561.44;5034052;28;20048;-83
2022/01/23 07:16:39;;;;;;;46.87;29.53;;;;;;;1.32;75.09;102667.81;5042908;28;20049;-82
2022/01/23 07:19:05;;;;;;;59.93;32.03;;;;;;;0.85;75.38;102591.03;5039766;28;20057;-83
2022/01/23 07:21:32;;;;;;;55.37;30.03;;;;;;;1.10;75.40;102642.91;5024351;28;20051;-82
2022/01/23 07:23:58;;;;;;;60.87;31.30;;;;;;;1.18;75.32;102648.88;5038913;28;20393;-81
2022/01/23 07:26:27;;;;;;;56.90;31.73;;;;;;;1.23;75.55;102654.88;5008359;28;20053;-82
2022/01/23 07:28:56;;;;;;;53.47;32.17;;;;;;;1.05;75.88;102633.38;5041606;28;20050;-83
2022/01/23 07:34:01;;;;;;;46.07;31.40;;;;;;;1.14;76.25;102670.72;5026188;28;20100;-82
2022/01/23 07:36:28;;;;;;;51.70;30.33;;;;;;;0.78;76.40;102602.47;5024479;28;20057;-82
2022/01/23 07:38:55;;;;;;;45.07;29.80;;;;;;;1.29;76.49;102673.13;5007465;28;20125;-82
2022/01/23 07:41:21;;;;;;;45.43;29.80;;;;;;;1.33;75.77;102674.78;5040039;28;20050;-83
2022/01/23 07:43:48;;;;;;;45.33;29.57;;;;;;;1.27;76.26;102672.28;5023143;28;20141;-80
2022/01/23 07:46:16;;;;;;;43.57;30.40;;;;;;;1.13;76.18;102648.09;5039637;28;20046;-82
2022/01/23 07:48:43;;;;;;;43.43;30.40;;;;;;;1.35;75.44;102674.75;5022331;28;20325;-82
2022/01/23 07:51:09;;;;;;;39.37;28.03;;;;;;;1.12;75.88;102634.16;5022293;28;20056;-82
2022/01/23 07:53:44;;;;;;;43.03;29.47;;;;;;;1.01;75.67;102621.22;5039820;28;20128;-82
2022/01/23 07:56:12;;;;;;;44.77;28.77;;;;;;;1.49;75.62;102678.84;5039851;28;20478;-81
2022/01/23 07:58:38;;;;;;;40.90;29.77;;;;;;;1.32;74.75;102648.66;5025971;28;20297;-82
2022/01/23 08:01:05;;;;;;;44.27;28.73;;;;;;;1.06;74.39;102619.41;5024371;28;20054;-83
2022/01/23 08:03:32;;;;;;;42.90;29.40;;;;;;;1.25;75.36;102646.13;5025314;28;20281;-83
2022/01/23 08:05:59;;;;;;;40.60;27.90;;;;;;;1.61;74.98;102708.34;5025790;28;20051;-82
2022/01/23 08:08:26;;;;;;;38.20;26.73;;;;;;;1.54;74.97;102691.00;5025971;28;20132;-82
2022/01/23 08:10:52;;;;;;;37.10;26.73;;;;;;;1.65;74.74;102700.41;5041358;28;20481;-82
2022/01/23 08:13:20;;;;;;;41.43;27.97;;;;;;;1.49;74.08;102673.63;5008244;28;20461;-82
2022/01/23 08:15:49;;;;;;;38.03;28.20;;;;;;;1.43;74.09;102650.19;5041511;28;20053;-82
2022/01/23 08:18:16;;;;;;;40.43;27.10;;;;;;;1.65;73.51;102699.50;5025965;28;20136;-83
2022/01/23 08:20:43;;;;;;;37.77;28.13;;;;;;;1.38;74.08;102643.28;5025852;28;20052;-82
2022/01/23 08:23:10;;;;;;;38.70;27.77;;;;;;;0.50;74.48;102494.88;5008223;28;20161;-82
2022/01/23 08:25:36;;;;;;;35.23;27.17;;;;;;;1.48;74.08;102666.66;5041158;28;20060;-81
2022/01/23 08:28:03;;;;;;;34.80;26.03;;;;;;;1.21;74.40;102609.56;5040991;28;20056;-81
2022/01/23 08:30:30;;;;;;;34.97;24.73;;;;;;;1.73;74.28;102681.94;5008313;28;20057;-82
2022/01/23 08:32:57;;;;;;;33.87;25.00;;;;;;;1.28;74.26;102603.34;5040984;28;20096;-81
2022/01/23 08:35:25;;;;;;;32.43;24.40;;;;;;;1.64;73.71;102640.19;5007766;28;20500;-81
2022/01/23 08:37:52;;;;;;;29.50;22.37;;;;;;;2.05;73.29;102673.44;5025622;28;20160;-81
2022/01/23 08:40:23;;;;;;;27.57;20.50;;;;;;;2.11;71.94;102673.31;5007678;28;20396;-81
2022/01/23 08:42:54;;;;;;;28.97;20.67;;;;;;;2.15;71.04;102663.63;5011764;28;20049;-82
2022/01/23 08:45:21;;;;;;;23.50;19.33;;;;;;;2.05;70.73;102641.13;5011545;28;20084;-82
2022/01/23 08:47:47;;;;;;;27.27;19.00;;;;;;;2.15;70.25;102663.63;5011693;28;20057;-82
2022/01/23 08:50:15;;;;;;;23.57;19.43;;;;;;;2.44;70.17;102702.31;5011446;28;20517;-82
2022/01/23 08:52:41;;;;;;;23.10;19.17;;;;;;;2.52;70.19;102705.63;5011452;28;20081;-82
2022/01/23 08:55:09;;;;;;;22.87;18.70;;;;;;;2.61;68.57;102696.72;5011286;28;20077;-84
2022/01/23 08:57:38;;;;;;;24.83;18.43;;;;;;;2.58;68.56;102683.69;5012934;28;20128;-81
2022/01/23 09:00:25;;;;;;;23.50;18.27;;;;;;;2.56;68.97;102675.84;5028874;28;20049;-82
2022/01/23 09:02:52;;;;;;;23.57;18.83;;;;;;;2.62;68.89;102676.59;5034302;28;20103;-83
2022/01/23 09:05:24;;;;;;;21.90;17.73;;;;;;;2.64;68.64;102659.94;5065905;28;20053;-82
2022/01/23 09:07:53;;;;;;;24.65;17.23;;;;;;;1.28;68.08;102412.31;5028111;28;20053;-83
2022/01/23 09:10:26;;;;;;;28.77;18.20;;;;;;;1.81;68.56;102485.34;5017400;28;20497;-81
2022/01/23 09:15:24;;;;;;;23.10;18.27;;;;;;;3.00;67.20;102679.19;5029024;28;20175;-82
2022/01/23 09:17:50;;;;;;;25.83;19.23;;;;;;;3.08;67.26;102688.63;5028789;28;20046;-82
2022/01/23 09:20:17;;;;;;;24.13;18.73;;;;;;;3.21;67.30;102696.19;5010775;28;20056;-82
2022/01/23 09:22:44;;;;;;;25.07;19.37;;;;;;;3.20;67.32;102678.72;5010816;28;20049;-82
2022/01/23 09:25:15;;;;;;;23.00;18.63;;;;;;;3.34;66.98;102686.25;5011602;28;20068;-81
2022/01/23 09:27:41;;;;;;;25.10;19.67;;;;;;;3.36;66.93;102679.19;5010729;28;20171;-83
2022/01/23 09:30:17;;;;;;;31.83;21.00;;;;;;;3.44;66.93;102681.63;5043261;28;20135;-81
2022/01/23 09:32:45;;;;;;;25.33;19.83;;;;;;;3.65;67.05;102716.97;5010344;28;20136;-81
2022/01/23 09:35:14;;;;;;;29.43;22.30;;;;;;;3.59;67.51;102701.34;5010642;28;20153;-82
2022/01/23 09:37:42;;;;;;;30.73;23.63;;;;;;;3.49;68.00;102668.38;5010315;28;20449;-82
2022/01/23 09:40:10;;;;;;;29.27;21.80;;;;;;;3.73;68.22;102729.91;5010299;28;20511;-82
2022/01/23 09:42:54;;;;;;;27.90;22.07;;;;;;;3.85;68.78;102750.59;5010587;28;20140;-83
2022/01/23 09:45:23;;;;;;;30.07;24.93;;;;;;;3.52;68.15;102695.44;5010726;28;20152;-82
2022/01/23 09:47:53;;;;;;;28.37;23.90;;;;;;;3.98;67.80;102765.16;5043952;28;20049;-81
2022/01/23 09:50:22;;;;;;;28.93;22.70;;;;;;;3.82;67.58;102713.91;5010420;28;20141;-82
2022/01/23 09:52:53;;;;;;;36.00;25.20;;;;;;;3.92;66.94;102725.88;5010231;28;20052;-82
2022/01/23 09:55:27;;;;;;;31.33;22.90;;;;;;;4.15;66.38;102755.91;5010158;28;20049;-81
2022/01/23 09:57:55;;;;;;;34.80;25.17;;;;;;;4.13;65.86;102728.84;5010631;28;20140;-81
2022/01/23 10:00:25;;;;;;;33.87;24.67;;;;;;;3.88;66.30;102666.41;5012808;28;20556;-81
2022/01/23 10:02:52;;;;;;;34.17;25.23;;;;;;;4.41;65.87;102729.75;5013938;28;20067;-82
2022/01/23 10:05:20;;;;;;;32.97;24.03;;;;;;;4.55;65.79;102732.00;5013997;28;20042;-82
2022/01/23 10:07:48;;;;;;;34.10;26.37;;;;;;;4.27;65.96;102671.44;5010960;28;20136;-82
2022/01/23 10:10:23;;;;;;;41.30;28.07;;;;;;;4.62;65.04;102709.00;5009354;28;20077;-81
2022/01/23 10:12:54;;;;;;;36.77;25.60;;;;;;;4.89;65.49;102742.34;5047816;28;20144;-84
2022/01/23 10:15:25;;;;;;;37.30;27.67;;;;;;;4.95;65.46;102743.06;5026081;28;20049;-81
2022/01/23 10:17:52;;;;;;;34.47;26.03;;;;;;;4.87;64.55;102719.63;5009894;28;20077;-81
2022/01/23 10:20:21;;;;;;;41.60;26.77;;;;;;;4.83;64.46;102717.97;5042485;28;20056;-82
2022/01/23 10:22:51;;;;;;;39.53;26.37;;;;;;;4.98;64.29;102738.59;5052092;28;20075;-81
2022/01/23 10:25:28;;;;;;;38.93;26.40;;;;;;;5.01;63.84;102740.25;5062417;28;20159;-80
2022/01/23 10:28:08;;;;;;;36.77;27.10;;;;;;;5.08;63.86;102744.41;5043424;28;20041;-81
2022/01/23 10:30:48;;;;;;;42.47;27.87;;;;;;;5.24;63.59;102748.28;5025679;28;20059;-81
2022/01/23 10:33:16;;;;;;;39.80;27.53;;;;;;;5.15;63.90;102727.53;5025878;28;20138;-80
2022/01/23 10:35:55;;;;;;;39.13;27.70;;;;;;;5.23;64.59;102741.28;5042219;28;20136;-80
2022/01/23 10:38:26;;;;;;;43.27;28.83;;;;;;;5.31;64.63;102723.44;5042413;28;20131;-81
2022/01/23 10:41:24;;;;;;;39.58;27.92;;;;;;;5.47;64.22;102725.59;5058896;28;20055;-81
2022/01/23 10:47:31;;;;;;;42.00;29.17;;;;;;;5.48;64.47;102720.25;5010554;28;20075;-80
2022/01/23 10:50:10;;;;;;;40.73;30.53;;;;;;;4.58;64.26;102567.94;5049432;28;20272;-82
2022/01/23 10:52:50;;;;;;;44.33;30.30;;;;;;;5.59;64.04;102716.41;5048582;28;20045;-80
2022/01/23 10:55:33;;;;;;;44.50;31.97;;;;;;;5.57;63.84;102708.56;5064199;28;20122;-81
2022/01/23 10:58:09;;;;;;;45.20;31.53;;;;;;;5.68;63.59;102714.34;5047199;28;20049;-80
2022/01/23 11:00:39;;;;;;;47.07;31.53;;;;;;;5.51;63.63;102703.47;5061970;28;20111;-83
2022/01/23 11:03:35;;;;;;;56.00;35.00;;;;;;;5.84;64.26;102742.78;5025927;28;20053;-80
2022/01/23 11:06:12;;;;;;;58.60;35.30;;;;;;;6.05;64.53;102744.69;5023801;28;20329;-82
2022/01/23 11:08:39;;;;;;;41.97;30.60;;;;;;;6.22;63.17;102745.88;5028660;28;20103;-83
2022/01/23 11:11:08;;;;;;;53.13;33.80;;;;;;;6.28;62.50;102724.53;5042875;28;20512;-83
2022/01/23 11:19:23;;;;;;;49.53;31.42;;;;;;;6.35;61.64;102641.59;5026443;28;20077;-84
2022/01/23 11:21:53;;;;;;;43.63;31.67;;;;;;;6.86;61.42;102711.75;5041457;28;20046;-83
2022/01/23 11:24:35;;;;;;;51.88;32.38;;;;;;;7.06;60.40;102725.03;5041863;28;20041;-82
2022/01/23 11:27:03;;;;;;;44.50;30.95;;;;;;;7.10;60.51;102732.81;5026224;28;20132;-83
2022/01/23 11:29:31;;;;;;;46.25;32.28;;;;;;;6.93;60.80;102726.41;5008955;28;20144;-82
2022/01/23 11:31:59;;;;;;;46.38;34.67;;;;;;;6.62;61.01;102669.53;5041521;28;20752;-82
2022/01/23 11:34:29;;;;;;;48.08;33.47;;;;;;;6.85;61.67;102724.09;5025103;28;20132;-82
2022/01/23 11:36:56;;;;;;;44.30;32.25;;;;;;;6.70;61.64;102703.59;5009064;28;20090;-82
2022/01/23 11:39:42;;;;;;;47.35;33.38;;;;;;;6.47;62.22;102685.97;5026358;28;20064;-84
2022/01/23 11:56:27;;;;;;;44.65;33.80;;;;;;;6.47;62.88;102719.44;5026042;28;20421;-82
2022/01/23 11:59:29;;;;;;;47.90;33.45;;;;;;;6.37;63.46;102695.19;5009448;28;20045;-81
2022/01/23 12:05:14;;;;;;;50.60;35.40;;;;;;;6.41;63.56;102696.78;4964555;28;20187;-84
2022/01/23 12:08:36;;;;;;;46.35;34.00;;;;;;;6.37;63.67;102676.72;5016242;28;20054;-82
2022/01/23 12:11:35;;;;;;;47.70;34.35;;;;;;;6.10;63.94;102625.88;4964347;28;20047;-84
2022/01/23 12:17:05;;;;;;;46.40;35.22;;;;;;;6.46;64.24;102694.84;4990401;28;20061;-82
2022/01/23 12:19:51;;;;;;;53.15;38.03;;;;;;;6.62;64.10;102695.94;5030058;28;20057;-82
2022/01/23 12:22:36;;;;;;;52.97;37.17;;;;;;;6.11;64.58;102619.66;5011782;28;20132;-82
2022/01/23 12:25:19;;;;;;;51.83;38.03;;;;;;;6.50;65.25;102690.28;5012399;28;20266;-83
2022/01/23 12:27:47;;;;;;;48.75;36.75;;;;;;;6.44;65.33;102680.84;5032915;28;20136;-82
2022/01/23 12:30:23;;;;;;;57.13;38.10;;;;;;;6.51;65.57;102695.50;5014885;28;20049;-82
2022/01/23 12:33:09;;;;;;;56.15;38.42;;;;;;;6.45;65.91;102685.19;5022602;28;20059;-82
2022/01/23 12:35:45;;;;;;;58.15;39.70;;;;;;;6.43;65.50;102692.28;5032412;28;20091;-82
2022/01/23 12:38:15;;;;;;;56.33;38.17;;;;;;;6.41;65.91;102680.97;5032158;28;20051;-82
2022/01/23 12:40:48;;;;;;;53.03;38.05;;;;;;;6.41;66.03;102668.63;5049186;28;20045;-83
2022/01/23 12:43:21;;;;;;;52.92;39.55;;;;;;;6.49;65.33;102667.47;5064576;28;20045;-82
2022/01/23 12:46:00;;;;;;;56.05;39.30;;;;;;;6.52;65.55;102652.34;5049387;28;20444;-82
2022/01/23 12:48:32;;;;;;;52.63;38.47;;;;;;;6.56;65.18;102648.69;5031312;28;20055;-83
2022/01/23 12:51:05;;;;;;;52.28;38.78;;;;;;;6.30;65.52;102625.09;5064368;28;20056;-82
2022/01/23 12:53:53;;;;;;;67.25;41.88;;;;;;;6.14;64.82;102591.41;5048340;28;20056;-83
2022/01/23 12:56:32;;;;;;;57.03;40.80;;;;;;;6.53;64.97;102646.19;5062953;28;20137;-82
2022/01/23 12:59:07;;;;;;;61.50;39.85;;;;;;;6.55;65.16;102648.75;5048917;28;20056;-82
2022/01/23 13:01:34;;;;;;;57.83;40.53;;;;;;;6.52;65.44;102644.44;5064075;28;20059;-82
2022/01/23 13:04:04;;;;;;;54.28;39.53;;;;;;;6.36;65.61;102615.19;5064596;28;20063;-83
2022/01/23 13:06:41;;;;;;;60.60;41.13;;;;;;;6.40;65.31;102627.31;5069039;28;20056;-81
2022/01/23 13:09:28;;;;;;;57.42;40.63;;;;;;;6.61;65.04;102652.00;5061377;28;20144;-82
2022/01/23 13:12:07;;;;;;;56.53;40.58;;;;;;;6.61;65.03;102652.00;5043847;28;20080;-81
2022/01/23 13:14:42;;;;;;;56.80;40.20;;;;;;;6.68;64.64;102652.63;5011257;28;20164;-82
2022/01/23 13:17:25;;;;;;;60.25;42.25;;;;;;;6.70;64.48;102640.22;5028807;28;20051;-82
2022/01/23 13:30:56;;;;;;;61.30;44.95;;;;;;;6.57;65.93;102623.16;5028735;28;20053;-82
2022/01/23 13:33:25;;;;;;;64.15;45.70;;;;;;;6.71;64.81;102619.97;5027803;28;20058;-83
2022/01/23 13:35:53;;;;;;;61.15;44.65;;;;;;;6.62;64.72;102619.41;5026960;28;20123;-82
2022/01/23 13:38:22;;;;;;;63.67;43.40;;;;;;;6.47;65.70;102612.09;5042561;28;20052;-83
2022/01/23 13:40:59;;;;;;;56.47;43.47;;;;;;;6.41;65.70;102601.81;5061154;28;20132;-84
2022/01/23 13:51:56;;;;;;;58.47;40.05;;;;;;;6.60;64.70;102617.75;5047919;28;20543;-83
2022/01/23 14:00:01;;;;;;;57.22;39.38;;;;;;;6.51;64.67;102597.03;5047486;28;20131;-82
2022/01/23 14:02:38;;;;;;;60.25;41.03;;;;;;;6.37;65.20;102579.94;5062685;28;20052;-83
2022/01/23 14:05:32;;;;;;;58.10;40.83;;;;;;;6.22;65.52;102558.59;5062610;28;20048;-82
2022/01/23 14:08:02;;;;;;;60.08;40.08;;;;;;;6.30;65.96;102570.56;5005536;28;20049;-83
2022/01/23 14:10:38;;;;;;;63.97;41.55;;;;;;;6.28;65.46;102563.63;5014365;28;20099;-82
2022/01/23 14:13:15;;;;;;;56.65;40.40;;;;;;;6.17;66.22;102567.56;5026359;28;20537;-82
2022/01/23 14:15:46;;;;;;;61.00;42.35;;;;;;;5.76;66.06;102487.41;5027742;28;20049;-81
2022/01/23 14:18:24;;;;;;;63.40;42.78;;;;;;;6.19;65.76;102549.03;5042882;28;20099;-83
2022/01/23 14:21:06;;;;;;;60.90;43.08;;;;;;;6.31;65.87;102568.78;5009658;28;20505;-81
2022/01/23 14:23:34;;;;;;;71.28;43.72;;;;;;;6.37;65.93;102573.81;5026232;28;20049;-82
2022/01/23 14:26:07;;;;;;;69.68;46.63;;;;;;;6.38;65.85;102573.78;5041433;28;20406;-82
2022/01/23 14:28:45;;;;;;;65.22;45.17;;;;;;;6.19;66.67;102555.16;5025949;28;20053;-82
2022/01/23 14:31:24;;;;;;;64.75;44.58;;;;;;;6.18;66.75;102553.44;5024800;28;20038;-81
2022/01/23 14:33:57;;;;;;;62.85;42.90;;;;;;;6.17;66.64;102559.63;5025614;28;20489;-83
2022/01/23 14:36:32;;;;;;;67.82;43.95;;;;;;;6.01;67.29;102523.38;5040735;28;20077;-82
2022/01/23 14:39:07;;;;;;;66.13;45.22;;;;;;;6.32;66.78;102570.50;5008055;28;20063;-84
2022/01/23 14:41:37;;;;;;;63.75;44.47;;;;;;;6.24;67.40;102577.84;5008202;28;20121;-83
2022/01/23 14:44:25;;;;;;;67.95;44.53;;;;;;;6.18;67.72;102566.63;5025472;28;20136;-82
2022/01/23 14:46:57;;;;;;;59.10;43.38;;;;;;;6.02;68.07;102536.50;5008280;28;20143;-83
2022/01/23 14:49:27;;;;;;;60.47;44.33;;;;;;;6.15;68.08;102569.38;5025110;28;20060;-81
2022/01/23 14:51:55;;;;;;;67.28;46.08;;;;;;;6.08;67.96;102532.78;5025166;28;20838;-80
2022/01/23 14:54:25;;;;;;;64.50;46.33;;;;;;;6.01;68.02;102518.09;5025905;28;20049;-82
2022/01/23 14:56:52;;;;;;;68.32;47.83;;;;;;;6.14;68.52;102559.78;5025953;28;20149;-82
2022/01/23 14:59:19;;;;;;;71.55;47.30;;;;;;;6.06;68.26;102556.56;5009703;28;20049;-83